3 – eServices

Baggage tracing
Cargo tracing
Weather
  • METAR

    EFMA 191620Z AUTO 20014KT 170V230 9999 SCT042 BKN209 18/16 Q1005

    EFTU 191620Z AUTO 22010KT 180V250 9999 BKN017/// 18/14 Q1006

    EFHK 191620Z 20016KT 9999 SCT017 BKN120 BKN200 18/15 Q1009 NOSIG

    ESSA 191620Z 24018KT 9999 NSC 20/09 Q1005 NOSIG

    ESSB 191620Z AUTO 23012KT 9999 NCD 20/08 Q1006

  • TAF n/a

Flightradar24